URMN 291230Z 29001MPS 9999 BKN005 M02/M03 Q1027 R24/010070 NOSIG RMK MT OBSC OBST OBSC QFE733
QNH:(hPa/inHg/mmHg)1027 / 30.33 / 770
QFE:(hPa/inHg/mmHg)1011 / 29.84 / 758
Temperature-2
Dew Point-3
Visibility> 10000
Weather
Cloud CoverBKN (500);
Transition Altitude5000 ft.
Transition LevelFL60
SQUAWK